Terminal Aerodrome Forecast
Issued by NWS

Home | Current Version | Previous Version | Text Only | Print | Product List | Glossary On
Versions: 1 2 3 4 5 6 7 8 9 10 11 12 13 14
000
FTUS43 KIND 291130
TAFHUF
TAF
KHUF 291130Z 2912/3012 15004KT P6SM SCT050 BKN100
     FM291500 20007KT P6SM VCSH BKN050 PROB30 2922/3004 5SM -TSRA
      BKN035CB
     FM300400 21002KT 5SM BR VCSH BKN045=

USA.gov is the U.S. government's official web portal to all federal, state and local government web resources and services.